Time;durP1;ratioP1;P1;durP2;ratioP2;P2;SDS_P1;SDS_P2;PMS_P1;PMS_P2;Temp;Humidity;BMP_temperature;BMP_pressure;BME280_temperature;BME280_humidity;BME280_pressure;Samples;Min_cycle;Max_cycle;Signal;HPM_P1;HPM_P2
2022/01/07 00:02:25;;;;;;;6.82;4.25;;;;;;;;;;4964959;28;20066;-63
2022/01/07 00:04:51;;;;;;;7.38;3.92;;;;;;;;;;4964496;28;20117;-63
2022/01/07 00:07:19;;;;;;;6.03;3.25;;;;;;;;;;4963438;28;20141;-63
2022/01/07 00:09:46;;;;;;;8.85;4.38;;;;;;;;;;4963263;28;20055;-64
2022/01/07 00:12:12;;;;;;;6.82;3.83;;;;;;;;;;4961445;28;20078;-63
2022/01/07 00:14:39;;;;;;;8.32;3.78;;;;;;;;;;4960487;28;20043;-63
2022/01/07 00:17:05;;;;;;;10.05;3.88;;;;;;;;;;4959299;28;20457;-63
2022/01/07 00:19:32;;;;;;;10.57;3.75;;;;;;;;;;4957670;28;20082;-62
2022/01/07 00:21:59;;;;;;;9.50;4.55;;;;;;;;;;4959312;28;20145;-63
2022/01/07 00:24:27;;;;;;;14.40;5.03;;;;;;;;;;4957823;28;20070;-64
2022/01/07 00:26:53;;;;;;;11.93;5.75;;;;;;;;;;4961740;28;20746;-63
2022/01/07 00:29:20;;;;;;;10.93;5.35;;;;;;;;;;4957893;28;20074;-64
2022/01/07 00:31:46;;;;;;;10.68;4.63;;;;;;;;;;4961481;28;20134;-63
2022/01/07 00:34:13;;;;;;;11.00;4.80;;;;;;;;;;4965231;28;20070;-63
2022/01/07 00:36:40;;;;;;;12.13;5.53;;;;;;;;;;4958405;28;20138;-64
2022/01/07 00:39:06;;;;;;;9.93;5.13;;;;;;;;;;4958953;28;20142;-64
2022/01/07 00:41:34;;;;;;;11.18;5.68;;;;;;;;;;4959952;28;20129;-64
2022/01/07 00:44:01;;;;;;;13.27;5.80;;;;;;;;;;4958015;28;20066;-63
2022/01/07 00:46:27;;;;;;;13.35;6.70;;;;;;;;;;4961940;28;20133;-63
2022/01/07 00:48:54;;;;;;;13.20;6.10;;;;;;;;;;4961675;28;20047;-63
2022/01/07 00:51:20;;;;;;;16.77;5.68;;;;;;;;;;4961890;28;20138;-63
2022/01/07 00:53:47;;;;;;;13.52;5.95;;;;;;;;;;4945703;28;20074;-63
2022/01/07 00:56:14;;;;;;;12.38;6.10;;;;;;;;;;4962343;28;20080;-63
2022/01/07 00:58:42;;;;;;;11.63;5.40;;;;;;;;;;4963346;28;20054;-63
2022/01/07 01:01:08;;;;;;;11.27;5.60;;;;;;;;;;4962082;28;20175;-63
2022/01/07 01:03:35;;;;;;;14.27;5.40;;;;;;;;;;4962801;28;20038;-64
2022/01/07 01:06:01;;;;;;;9.27;5.20;;;;;;;;;;4966087;28;20184;-64
2022/01/07 01:08:28;;;;;;;8.80;4.55;;;;;;;;;;4964163;28;20463;-64
2022/01/07 01:10:55;;;;;;;9.82;5.07;;;;;;;;;;4964366;28;20089;-64
2022/01/07 01:13:22;;;;;;;9.95;4.75;;;;;;;;;;4963681;28;20324;-63
2022/01/07 01:15:50;;;;;;;9.32;4.90;;;;;;;;;;4965314;28;20158;-63
2022/01/07 01:18:17;;;;;;;7.45;4.53;;;;;;;;;;4964865;28;20166;-63
2022/01/07 01:20:43;;;;;;;12.63;5.22;;;;;;;;;;4963369;28;20554;-63
2022/01/07 01:23:10;;;;;;;12.05;6.13;;;;;;;;;;4964077;28;20699;-63
2022/01/07 01:25:37;;;;;;;14.65;7.05;;;;;;;;;;4960866;28;20128;-63
2022/01/07 01:28:03;;;;;;;22.13;9.13;;;;;;;;;;4960537;28;20074;-62
2022/01/07 01:30:32;;;;;;;13.00;5.85;;;;;;;;;;4959986;28;20101;-63
2022/01/07 01:33:00;;;;;;;15.57;6.57;;;;;;;;;;4964397;28;20046;-63
2022/01/07 01:35:27;;;;;;;13.52;5.30;;;;;;;;;;4962796;28;20118;-64
2022/01/07 01:37:54;;;;;;;11.57;5.93;;;;;;;;;;4961460;28;20101;-62
2022/01/07 01:40:21;;;;;;;10.55;5.28;;;;;;;;;;4960026;28;20058;-63
2022/01/07 01:42:51;;;;;;;14.23;5.68;;;;;;;;;;4962438;28;20082;-63
2022/01/07 01:45:18;;;;;;;11.02;4.97;;;;;;;;;;4959451;28;20135;-64
2022/01/07 01:48:35;;;;;;;10.48;5.40;;;;;;;;;;4958480;28;20145;-62
2022/01/07 01:51:03;;;;;;;9.27;5.15;;;;;;;;;;4962399;28;20113;-63
2022/01/07 01:53:30;;;;;;;10.80;5.75;;;;;;;;;;4959126;28;20144;-64
2022/01/07 01:55:56;;;;;;;17.88;5.90;;;;;;;;;;4958452;28;20879;-63
2022/01/07 01:58:23;;;;;;;12.63;5.50;;;;;;;;;;4958955;28;20473;-63
2022/01/07 02:00:49;;;;;;;12.88;5.28;;;;;;;;;;4960999;28;20138;-63
2022/01/07 02:03:16;;;;;;;8.98;5.22;;;;;;;;;;4962007;28;20081;-64
2022/01/07 02:05:43;;;;;;;10.23;5.65;;;;;;;;;;4961845;28;20093;-63
2022/01/07 02:08:11;;;;;;;11.43;5.75;;;;;;;;;;4964909;28;20091;-63
2022/01/07 02:10:38;;;;;;;13.57;5.38;;;;;;;;;;4964954;28;20195;-63
2022/01/07 02:13:04;;;;;;;12.70;5.43;;;;;;;;;;4961728;28;20126;-61
2022/01/07 02:15:31;;;;;;;9.20;5.28;;;;;;;;;;4962746;28;20132;-64
2022/01/07 02:17:58;;;;;;;14.68;5.00;;;;;;;;;;4962585;28;20046;-64
2022/01/07 02:20:28;;;;;;;10.45;5.55;;;;;;;;;;4963681;28;20125;-63
2022/01/07 02:22:55;;;;;;;11.15;5.55;;;;;;;;;;4963122;28;20051;-63
2022/01/07 02:25:23;;;;;;;12.80;4.95;;;;;;;;;;4963043;28;20038;-64
2022/01/07 02:27:50;;;;;;;12.98;6.45;;;;;;;;;;4961536;28;20055;-64
2022/01/07 02:30:18;;;;;;;13.60;6.10;;;;;;;;;;4964467;28;20067;-64
2022/01/07 02:32:45;;;;;;;9.73;5.50;;;;;;;;;;4965517;28;20095;-64
2022/01/07 02:35:12;;;;;;;11.07;5.93;;;;;;;;;;4966887;28;20035;-63
2022/01/07 02:37:41;;;;;;;14.07;5.93;;;;;;;;;;4961017;28;20085;-64
2022/01/07 02:40:09;;;;;;;13.05;5.40;;;;;;;;;;4962949;28;20218;-61
2022/01/07 02:42:36;;;;;;;11.15;5.50;;;;;;;;;;4962361;28;20447;-62
2022/01/07 02:45:05;;;;;;;9.18;5.15;;;;;;;;;;4966114;28;20098;-62
2022/01/07 02:47:39;;;;;;;9.50;4.72;;;;;;;;;;4961182;28;20046;-64
2022/01/07 02:50:07;;;;;;;9.77;5.10;;;;;;;;;;4968622;28;20034;-64
2022/01/07 02:52:33;;;;;;;9.13;5.32;;;;;;;;;;4965577;28;20078;-63
2022/01/07 02:55:01;;;;;;;9.82;4.45;;;;;;;;;;4966106;28;20074;-63
2022/01/07 02:57:28;;;;;;;9.35;4.43;;;;;;;;;;4963252;28;20211;-63
2022/01/07 02:59:54;;;;;;;9.15;4.90;;;;;;;;;;4965021;28;20890;-63
2022/01/07 03:02:21;;;;;;;11.55;4.68;;;;;;;;;;4966830;28;20411;-64
2022/01/07 03:04:47;;;;;;;9.77;4.60;;;;;;;;;;4968031;28;20074;-64
2022/01/07 03:07:14;;;;;;;10.75;4.68;;;;;;;;;;4968901;28;20069;-63
2022/01/07 03:09:41;;;;;;;11.07;4.25;;;;;;;;;;4967252;28;20118;-64
2022/01/07 03:12:10;;;;;;;9.15;5.18;;;;;;;;;;4966964;28;20550;-64
2022/01/07 03:14:36;;;;;;;10.23;4.53;;;;;;;;;;4947314;28;20078;-63
2022/01/07 03:17:03;;;;;;;8.00;4.18;;;;;;;;;;4966303;28;20203;-63
2022/01/07 03:19:29;;;;;;;10.70;4.75;;;;;;;;;;4964835;28;20093;-64
2022/01/07 03:21:56;;;;;;;10.23;4.55;;;;;;;;;;4966240;28;20074;-63
2022/01/07 03:24:22;;;;;;;9.57;5.03;;;;;;;;;;4963867;28;20039;-62
2022/01/07 03:26:49;;;;;;;8.63;4.63;;;;;;;;;;4965185;28;20134;-63
2022/01/07 03:29:17;;;;;;;13.57;5.85;;;;;;;;;;4963044;28;20051;-62
2022/01/07 03:31:43;;;;;;;7.82;4.43;;;;;;;;;;4962934;28;20146;-63
2022/01/07 03:34:10;;;;;;;7.18;4.10;;;;;;;;;;4959116;28;20073;-63
2022/01/07 03:36:36;;;;;;;11.38;5.15;;;;;;;;;;4960162;28;20066;-63
2022/01/07 03:39:03;;;;;;;8.32;4.60;;;;;;;;;;4960260;28;20634;-63
2022/01/07 03:41:30;;;;;;;8.50;4.75;;;;;;;;;;4959866;28;20431;-63
2022/01/07 03:43:57;;;;;;;11.85;5.28;;;;;;;;;;4961298;28;20102;-63
2022/01/07 03:46:25;;;;;;;10.48;5.10;;;;;;;;;;4957834;28;20138;-63
2022/01/07 03:48:52;;;;;;;10.85;4.82;;;;;;;;;;4958580;28;20500;-63
2022/01/07 03:51:18;;;;;;;9.48;4.82;;;;;;;;;;4955158;28;20797;-62
2022/01/07 03:53:45;;;;;;;11.80;5.00;;;;;;;;;;4958419;28;20435;-62
2022/01/07 03:56:17;;;;;;;11.63;5.43;;;;;;;;;;4958923;28;20134;-62
2022/01/07 03:58:44;;;;;;;10.35;5.22;;;;;;;;;;4956924;28;20062;-64
2022/01/07 04:01:11;;;;;;;9.35;5.32;;;;;;;;;;4961718;28;20121;-63
2022/01/07 04:03:39;;;;;;;10.27;4.95;;;;;;;;;;4955162;28;20070;-63
2022/01/07 04:06:05;;;;;;;9.98;4.50;;;;;;;;;;4961164;28;20134;-64
2022/01/07 04:08:32;;;;;;;7.68;4.15;;;;;;;;;;4962529;28;20130;-64
2022/01/07 04:10:58;;;;;;;8.55;4.22;;;;;;;;;;4960081;28;20101;-64
2022/01/07 04:13:25;;;;;;;9.57;4.03;;;;;;;;;;4957321;28;20149;-63
2022/01/07 04:15:52;;;;;;;12.57;4.97;;;;;;;;;;4960142;28;20067;-63
2022/01/07 04:18:18;;;;;;;11.75;5.78;;;;;;;;;;4958729;28;20102;-63
2022/01/07 04:20:46;;;;;;;9.38;4.53;;;;;;;;;;4958290;28;20134;-63
2022/01/07 04:23:13;;;;;;;7.63;4.15;;;;;;;;;;4958661;28;20141;-64
2022/01/07 04:25:39;;;;;;;12.52;4.60;;;;;;;;;;4958329;28;20074;-64
2022/01/07 04:28:08;;;;;;;8.25;4.40;;;;;;;;;;4959685;28;20145;-64
2022/01/07 04:30:37;;;;;;;7.45;4.45;;;;;;;;;;4964558;28;20117;-63
2022/01/07 04:33:04;;;;;;;11.65;4.70;;;;;;;;;;4962802;28;20081;-64
2022/01/07 04:35:32;;;;;;;9.55;5.07;;;;;;;;;;4962757;28;20058;-63
2022/01/07 04:38:00;;;;;;;10.27;5.07;;;;;;;;;;4962729;28;20169;-63
2022/01/07 04:40:27;;;;;;;9.55;4.38;;;;;;;;;;4961924;28;20449;-64
2022/01/07 04:42:54;;;;;;;10.70;5.05;;;;;;;;;;4964345;28;20113;-64
2022/01/07 04:45:21;;;;;;;8.55;4.60;;;;;;;;;;4961121;28;20272;-62
2022/01/07 04:47:48;;;;;;;8.50;4.82;;;;;;;;;;4962047;28;20066;-63
2022/01/07 04:50:16;;;;;;;9.93;5.05;;;;;;;;;;4961925;28;20097;-63
2022/01/07 04:52:44;;;;;;;8.95;4.32;;;;;;;;;;4965072;28;20078;-63
2022/01/07 04:55:13;;;;;;;10.05;5.22;;;;;;;;;;4961660;28;20047;-63
2022/01/07 04:57:40;;;;;;;11.77;5.57;;;;;;;;;;4963610;28;20065;-64
2022/01/07 05:00:07;;;;;;;10.23;4.70;;;;;;;;;;4963090;28;20046;-64
2022/01/07 05:02:34;;;;;;;8.77;5.15;;;;;;;;;;4962308;28;20125;-63
2022/01/07 05:05:00;;;;;;;10.68;3.80;;;;;;;;;;4964254;28;20146;-64
2022/01/07 05:07:27;;;;;;;9.40;4.75;;;;;;;;;;4962723;28;20472;-63
2022/01/07 05:09:53;;;;;;;11.65;5.80;;;;;;;;;;4963175;28;20070;-64
2022/01/07 05:12:21;;;;;;;12.70;4.90;;;;;;;;;;4966360;28;20747;-63
2022/01/07 05:14:49;;;;;;;9.10;4.65;;;;;;;;;;4967426;28;20130;-63
2022/01/07 05:17:15;;;;;;;10.65;5.25;;;;;;;;;;4962767;28;20062;-63
2022/01/07 05:19:42;;;;;;;7.18;4.15;;;;;;;;;;4962639;28;20086;-64
2022/01/07 05:22:08;;;;;;;11.45;5.20;;;;;;;;;;4964108;28;20070;-63
2022/01/07 05:24:35;;;;;;;8.60;4.40;;;;;;;;;;4958534;28;20129;-63
2022/01/07 05:27:01;;;;;;;10.77;4.75;;;;;;;;;;4960140;28;20039;-63
2022/01/07 05:29:33;;;;;;;9.75;4.13;;;;;;;;;;4964784;28;20062;-63
2022/01/07 05:31:59;;;;;;;11.60;5.43;;;;;;;;;;4963392;28;20150;-63
2022/01/07 05:34:26;;;;;;;9.45;4.38;;;;;;;;;;4961729;28;20141;-63
2022/01/07 05:36:53;;;;;;;9.60;4.53;;;;;;;;;;4965382;28;20125;-63
2022/01/07 05:39:19;;;;;;;9.15;4.72;;;;;;;;;;4960959;28;20191;-63
2022/01/07 05:41:46;;;;;;;10.10;4.65;;;;;;;;;;4963202;28;20098;-63
2022/01/07 05:44:12;;;;;;;9.18;4.40;;;;;;;;;;4963066;28;20066;-63
2022/01/07 05:46:40;;;;;;;15.15;4.57;;;;;;;;;;4959080;28;20551;-63
2022/01/07 05:49:07;;;;;;;11.45;4.20;;;;;;;;;;4958615;28;20130;-64
2022/01/07 05:51:33;;;;;;;14.00;5.25;;;;;;;;;;4963614;28;20093;-63
2022/01/07 05:54:00;;;;;;;10.27;4.40;;;;;;;;;;4961235;28;20462;-64
2022/01/07 05:56:27;;;;;;;8.95;4.38;;;;;;;;;;4959145;28;20157;-63
2022/01/07 05:58:54;;;;;;;8.00;4.63;;;;;;;;;;4960997;28;20141;-63
2022/01/07 06:01:20;;;;;;;10.00;4.75;;;;;;;;;;4958601;28;20066;-63
2022/01/07 06:03:49;;;;;;;11.65;3.90;;;;;;;;;;4961928;28;20385;-63
2022/01/07 06:06:16;;;;;;;10.35;5.00;;;;;;;;;;4959909;28;20092;-63
2022/01/07 06:08:42;;;;;;;14.90;5.97;;;;;;;;;;4963497;28;20074;-63
2022/01/07 06:11:09;;;;;;;11.52;5.15;;;;;;;;;;4959411;28;20070;-63
2022/01/07 06:13:36;;;;;;;12.20;4.88;;;;;;;;;;4961136;28;20051;-63
2022/01/07 06:16:03;;;;;;;10.48;5.30;;;;;;;;;;4957137;28;20553;-63
2022/01/07 06:18:29;;;;;;;14.23;5.70;;;;;;;;;;4965080;28;20103;-63
2022/01/07 06:20:57;;;;;;;14.73;5.18;;;;;;;;;;4962243;28;20396;-63
2022/01/07 06:23:24;;;;;;;13.23;5.15;;;;;;;;;;4964347;28;20105;-63
2022/01/07 06:25:51;;;;;;;14.90;6.03;;;;;;;;;;4964394;28;20526;-63
2022/01/07 06:28:17;;;;;;;10.23;4.82;;;;;;;;;;4956774;28;20474;-63
2022/01/07 06:30:44;;;;;;;9.43;4.70;;;;;;;;;;4961199;28;20459;-64
2022/01/07 06:33:11;;;;;;;9.02;4.95;;;;;;;;;;4961227;28;20079;-64
2022/01/07 06:35:37;;;;;;;11.05;5.47;;;;;;;;;;4961452;28;20066;-63
2022/01/07 06:38:05;;;;;;;8.55;4.40;;;;;;;;;;4958629;28;20138;-63
2022/01/07 06:40:32;;;;;;;9.98;4.72;;;;;;;;;;4957294;28;20514;-63
2022/01/07 06:42:59;;;;;;;12.77;5.53;;;;;;;;;;4955331;28;20079;-63
2022/01/07 06:45:25;;;;;;;10.18;5.47;;;;;;;;;;4958158;28;21385;-63
2022/01/07 06:47:52;;;;;;;15.77;6.50;;;;;;;;;;4960562;28;20086;-63
2022/01/07 06:50:18;;;;;;;14.63;6.95;;;;;;;;;;4957724;28;20142;-64
2022/01/07 06:52:45;;;;;;;17.13;7.22;;;;;;;;;;4945385;28;20121;-63
2022/01/07 06:55:13;;;;;;;20.67;7.20;;;;;;;;;;4957297;28;20122;-63
2022/01/07 06:57:40;;;;;;;15.50;7.90;;;;;;;;;;4957943;28;20071;-64
2022/01/07 07:00:08;;;;;;;14.32;7.82;;;;;;;;;;4963897;28;20043;-63
2022/01/07 07:02:35;;;;;;;20.92;8.85;;;;;;;;;;4960143;28;20098;-63
2022/01/07 07:05:01;;;;;;;19.40;9.25;;;;;;;;;;4966759;28;20054;-63
2022/01/07 07:07:28;;;;;;;17.83;7.63;;;;;;;;;;4946616;28;20051;-63
2022/01/07 07:09:54;;;;;;;19.10;8.65;;;;;;;;;;4964745;28;20126;-64
2022/01/07 07:12:22;;;;;;;19.75;9.40;;;;;;;;;;4963368;28;20384;-64
2022/01/07 07:14:49;;;;;;;20.63;9.38;;;;;;;;;;4966601;28;20057;-64
2022/01/07 07:17:15;;;;;;;17.30;7.80;;;;;;;;;;4965952;28;20121;-64
2022/01/07 07:19:42;;;;;;;24.05;9.43;;;;;;;;;;4962792;28;20046;-63
2022/01/07 07:22:09;;;;;;;19.95;8.10;;;;;;;;;;4969922;28;20045;-64
2022/01/07 07:24:36;;;;;;;17.95;7.30;;;;;;;;;;4969247;28;20049;-63
2022/01/07 07:27:02;;;;;;;21.13;9.88;;;;;;;;;;4966540;28;20043;-63
2022/01/07 07:29:30;;;;;;;20.73;9.65;;;;;;;;;;4968017;28;20098;-64
2022/01/07 07:31:58;;;;;;;22.08;8.82;;;;;;;;;;4970641;28;20066;-64
2022/01/07 07:34:56;;;;;;;16.00;8.93;;;;;;;;;;4971165;28;20045;-63
2022/01/07 07:37:22;;;;;;;20.25;8.45;;;;;;;;;;4964042;28;20134;-63
2022/01/07 07:39:49;;;;;;;19.92;8.15;;;;;;;;;;4966072;28;20063;-63
2022/01/07 07:42:16;;;;;;;17.20;8.18;;;;;;;;;;4965397;28;20566;-63
2022/01/07 07:44:44;;;;;;;17.70;8.77;;;;;;;;;;4969424;28;20286;-63
2022/01/07 07:47:10;;;;;;;21.45;8.73;;;;;;;;;;4966457;28;20035;-63
2022/01/07 07:49:37;;;;;;;32.75;9.13;;;;;;;;;;4965695;28;20050;-63
2022/01/07 07:52:05;;;;;;;22.35;8.70;;;;;;;;;;4965968;28;20575;-64
2022/01/07 07:54:31;;;;;;;19.75;9.55;;;;;;;;;;4965512;28;20042;-63
2022/01/07 07:56:59;;;;;;;23.08;10.05;;;;;;;;;;4961158;28;20082;-63
2022/01/07 07:59:26;;;;;;;20.58;9.90;;;;;;;;;;4965908;28;20101;-63
2022/01/07 08:01:54;;;;;;;20.52;9.55;;;;;;;;;;4965585;28;20066;-63
2022/01/07 08:04:21;;;;;;;19.05;9.27;;;;;;;;;;4966195;28;20701;-64
2022/01/07 08:06:48;;;;;;;17.27;8.27;;;;;;;;;;4961955;28;20421;-64
2022/01/07 08:09:14;;;;;;;19.52;7.70;;;;;;;;;;4962636;28;20074;-64
2022/01/07 08:11:50;;;;;;;20.65;8.95;;;;;;;;;;4962869;28;20038;-63
2022/01/07 08:17:04;;;;;;;20.30;8.68;;;;;;;;;;4962079;28;20399;-64
2022/01/07 08:19:30;;;;;;;19.55;8.65;;;;;;;;;;4966405;28;20054;-64
2022/01/07 08:21:57;;;;;;;16.73;8.90;;;;;;;;;;4963655;28;20114;-64
2022/01/07 08:24:24;;;;;;;21.27;9.25;;;;;;;;;;4961492;28;20067;-63
2022/01/07 08:26:50;;;;;;;18.55;9.38;;;;;;;;;;4963855;28;20078;-63
2022/01/07 08:29:19;;;;;;;18.23;7.75;;;;;;;;;;4950568;28;20091;-63
2022/01/07 08:37:15;;;;;;;17.48;8.23;;;;;;;;;;4967114;28;20045;-63
2022/01/07 08:39:42;;;;;;;17.73;9.32;;;;;;;;;;4961648;28;20070;-63
2022/01/07 08:42:09;;;;;;;17.83;9.00;;;;;;;;;;4962114;28;20042;-64
2022/01/07 08:44:35;;;;;;;17.33;8.20;;;;;;;;;;4964282;28;20110;-64
2022/01/07 08:47:02;;;;;;;21.38;8.80;;;;;;;;;;4965166;28;20039;-63
2022/01/07 08:49:28;;;;;;;20.67;9.93;;;;;;;;;;4961402;28;20133;-63
2022/01/07 08:51:56;;;;;;;21.23;10.18;;;;;;;;;;4958777;28;20067;-63
2022/01/07 08:54:23;;;;;;;17.65;9.55;;;;;;;;;;4965178;28;20130;-63
2022/01/07 08:56:49;;;;;;;17.98;9.95;;;;;;;;;;4962796;28;20122;-64
2022/01/07 08:59:16;;;;;;;19.85;10.02;;;;;;;;;;4961708;28;20130;-64
2022/01/07 09:01:46;;;;;;;16.58;8.57;;;;;;;;;;4965914;28;20074;-64
2022/01/07 09:04:13;;;;;;;21.30;9.93;;;;;;;;;;4960162;28;20078;-64
2022/01/07 09:06:39;;;;;;;18.35;8.73;;;;;;;;;;4965776;28;20106;-63
2022/01/07 09:09:07;;;;;;;17.83;8.95;;;;;;;;;;4962226;28;20090;-63
2022/01/07 09:11:34;;;;;;;19.63;9.38;;;;;;;;;;4960609;28;20141;-63
2022/01/07 09:14:00;;;;;;;15.57;8.80;;;;;;;;;;4958223;28;20146;-64
2022/01/07 09:16:27;;;;;;;18.55;9.65;;;;;;;;;;4964384;28;20125;-63
2022/01/07 09:18:54;;;;;;;20.27;10.90;;;;;;;;;;4966503;28;20086;-63
2022/01/07 09:21:20;;;;;;;21.52;10.63;;;;;;;;;;4960653;28;20122;-63
2022/01/07 09:23:48;;;;;;;21.25;10.40;;;;;;;;;;4965869;28;20107;-63
2022/01/07 09:26:16;;;;;;;22.13;10.88;;;;;;;;;;4968321;28;20184;-63
2022/01/07 09:28:42;;;;;;;18.65;10.25;;;;;;;;;;4965672;28;20125;-64
2022/01/07 09:31:09;;;;;;;18.35;9.75;;;;;;;;;;4963287;28;20073;-63
2022/01/07 09:33:36;;;;;;;20.50;10.75;;;;;;;;;;4964866;28;20117;-63
2022/01/07 09:36:02;;;;;;;18.77;9.52;;;;;;;;;;4962590;28;20067;-63
2022/01/07 09:38:29;;;;;;;24.20;9.23;;;;;;;;;;4960715;28;20133;-63
2022/01/07 09:40:55;;;;;;;22.38;10.65;;;;;;;;;;4962358;28;20043;-64
2022/01/07 09:43:23;;;;;;;22.13;9.88;;;;;;;;;;4962900;28;20078;-64
2022/01/07 09:45:51;;;;;;;22.05;10.07;;;;;;;;;;4964033;28;20049;-64
2022/01/07 09:48:17;;;;;;;21.73;10.15;;;;;;;;;;4966476;28;20089;-64
2022/01/07 09:50:45;;;;;;;27.65;12.43;;;;;;;;;;4963631;28;20051;-64
2022/01/07 09:53:14;;;;;;;24.17;11.27;;;;;;;;;;4958049;28;20043;-64
2022/01/07 09:55:40;;;;;;;26.40;12.50;;;;;;;;;;4960452;28;20039;-64
2022/01/07 09:58:12;;;;;;;23.40;11.77;;;;;;;;;;4963053;28;20162;-64
2022/01/07 10:00:42;;;;;;;23.30;11.20;;;;;;;;;;4960176;28;20050;-64
2022/01/07 10:03:10;;;;;;;26.30;11.77;;;;;;;;;;4943585;28;20074;-64
2022/01/07 10:05:44;;;;;;;21.00;10.52;;;;;;;;;;4960291;28;20071;-64
2022/01/07 10:08:23;;;;;;;19.80;9.48;;;;;;;;;;4961136;28;20106;-64
2022/01/07 10:11:11;;;;;;;21.10;9.95;;;;;;;;;;4959702;28;20074;-64
2022/01/07 10:13:38;;;;;;;22.85;10.32;;;;;;;;;;4962039;28;20553;-64
2022/01/07 10:16:15;;;;;;;19.10;9.43;;;;;;;;;;4960313;28;20062;-64
2022/01/07 10:18:42;;;;;;;16.90;8.80;;;;;;;;;;4957365;28;20047;-64
2022/01/07 10:21:09;;;;;;;17.15;9.10;;;;;;;;;;4957865;28;20136;-64
2022/01/07 10:23:36;;;;;;;16.98;8.82;;;;;;;;;;4963195;28;20455;-64
2022/01/07 10:26:03;;;;;;;16.10;8.40;;;;;;;;;;4960699;28;20117;-64
2022/01/07 10:28:30;;;;;;;17.50;9.40;;;;;;;;;;4962591;28;20558;-64
2022/01/07 10:30:59;;;;;;;17.52;7.95;;;;;;;;;;4963305;28;20113;-64
2022/01/07 10:33:29;;;;;;;18.27;8.68;;;;;;;;;;4956483;28;20039;-64
2022/01/07 10:35:57;;;;;;;16.02;8.73;;;;;;;;;;4964452;28;20031;-64
2022/01/07 10:38:26;;;;;;;17.42;9.10;;;;;;;;;;4963959;28;20039;-64
2022/01/07 10:40:54;;;;;;;19.77;9.68;;;;;;;;;;4961072;28;20138;-64
2022/01/07 10:43:22;;;;;;;18.08;10.02;;;;;;;;;;4964800;28;20050;-64
2022/01/07 10:45:51;;;;;;;19.52;10.27;;;;;;;;;;4968328;28;20058;-64
2022/01/07 10:48:19;;;;;;;20.13;10.30;;;;;;;;;;4970349;28;20081;-65
2022/01/07 10:50:49;;;;;;;19.20;9.93;;;;;;;;;;4965049;28;20070;-64
2022/01/07 10:53:20;;;;;;;19.13;9.00;;;;;;;;;;4962968;28;20047;-64
2022/01/07 10:56:03;;;;;;;17.63;8.68;;;;;;;;;;4968766;28;20129;-64
2022/01/07 10:58:36;;;;;;;16.10;8.38;;;;;;;;;;4966768;28;20090;-64
2022/01/07 11:01:02;;;;;;;12.65;7.75;;;;;;;;;;4959585;28;20083;-64
2022/01/07 11:03:33;;;;;;;15.52;8.20;;;;;;;;;;4969987;28;20472;-64
2022/01/07 11:06:02;;;;;;;13.65;6.90;;;;;;;;;;4965706;28;20121;-64
2022/01/07 11:08:28;;;;;;;19.00;8.95;;;;;;;;;;4966224;28;20047;-63
2022/01/07 11:10:56;;;;;;;16.77;7.10;;;;;;;;;;4962337;28;20138;-64
2022/01/07 11:13:23;;;;;;;12.55;7.32;;;;;;;;;;4968322;28;20067;-64
2022/01/07 11:15:49;;;;;;;15.73;7.57;;;;;;;;;;4965023;28;20086;-64
2022/01/07 11:18:16;;;;;;;13.98;7.35;;;;;;;;;;4967280;28;20097;-64
2022/01/07 11:20:44;;;;;;;13.63;8.50;;;;;;;;;;4966150;28;20074;-64
2022/01/07 11:23:12;;;;;;;14.23;7.43;;;;;;;;;;4970665;28;20050;-64
2022/01/07 11:25:39;;;;;;;14.00;7.18;;;;;;;;;;4968657;28;20440;-64
2022/01/07 11:28:05;;;;;;;11.70;6.63;;;;;;;;;;4968333;28;20070;-63
2022/01/07 11:30:35;;;;;;;13.13;7.20;;;;;;;;;;4966189;28;20474;-64
2022/01/07 11:33:16;;;;;;;11.32;5.93;;;;;;;;;;4963439;28;20043;-64
2022/01/07 11:35:45;;;;;;;14.25;7.72;;;;;;;;;;4966553;28;20089;-64
2022/01/07 11:38:35;;;;;;;13.48;7.93;;;;;;;;;;4966426;28;20065;-64
2022/01/07 11:41:06;;;;;;;17.27;8.15;;;;;;;;;;4964556;28;20133;-64
2022/01/07 11:43:35;;;;;;;11.18;6.70;;;;;;;;;;4962390;28;20483;-64
2022/01/07 11:46:21;;;;;;;11.85;6.55;;;;;;;;;;4965500;28;20491;-64
2022/01/07 11:48:48;;;;;;;14.13;7.22;;;;;;;;;;4965921;28;20838;-64
2022/01/07 11:51:16;;;;;;;14.93;8.70;;;;;;;;;;4961109;28;20761;-64
2022/01/07 11:54:12;;;;;;;15.48;7.72;;;;;;;;;;4965881;28;20059;-63
2022/01/07 11:56:41;;;;;;;14.05;7.35;;;;;;;;;;4964771;28;20051;-64
2022/01/07 11:59:24;;;;;;;11.30;6.90;;;;;;;;;;4961931;28;20483;-64
2022/01/07 12:02:02;;;;;;;14.02;7.57;;;;;;;;;;4961435;28;20053;-64
2022/01/07 12:04:29;;;;;;;12.95;7.38;;;;;;;;;;4965692;28;20038;-64
2022/01/07 12:06:57;;;;;;;21.15;8.68;;;;;;;;;;4963009;28;20094;-64
2022/01/07 12:09:32;;;;;;;11.30;6.78;;;;;;;;;;4966652;28;20047;-63
2022/01/07 12:12:01;;;;;;;14.13;7.03;;;;;;;;;;4966739;28;20478;-63
2022/01/07 12:14:32;;;;;;;14.43;7.05;;;;;;;;;;4969419;28;20074;-63
2022/01/07 12:17:01;;;;;;;18.05;7.38;;;;;;;;;;4965821;28;20047;-63
2022/01/07 12:20:06;;;;;;;14.15;7.65;;;;;;;;;;4960595;28;20087;-63
2022/01/07 12:22:33;;;;;;;16.42;7.43;;;;;;;;;;4967117;28;20538;-63
2022/01/07 12:25:02;;;;;;;14.32;7.63;;;;;;;;;;4960981;28;20078;-63
2022/01/07 12:27:31;;;;;;;12.77;7.90;;;;;;;;;;4968107;28;20389;-63
2022/01/07 12:30:00;;;;;;;14.57;6.97;;;;;;;;;;4961150;28;20051;-63
2022/01/07 12:32:35;;;;;;;13.07;7.20;;;;;;;;;;4965314;28;20039;-63
2022/01/07 12:35:03;;;;;;;14.88;6.82;;;;;;;;;;4966313;28;20081;-63
2022/01/07 12:37:30;;;;;;;14.07;7.82;;;;;;;;;;4960860;28;20039;-63
2022/01/07 12:39:58;;;;;;;12.02;7.10;;;;;;;;;;4967387;28;20053;-63
2022/01/07 12:42:26;;;;;;;12.68;7.60;;;;;;;;;;4963878;28;20070;-63
2022/01/07 12:44:57;;;;;;;11.45;6.93;;;;;;;;;;4962581;28;20066;-63
2022/01/07 12:47:25;;;;;;;16.95;8.88;;;;;;;;;;4961782;28;20098;-63
2022/01/07 12:49:55;;;;;;;14.43;7.15;;;;;;;;;;4965164;28;20043;-63
2022/01/07 12:52:24;;;;;;;13.18;7.10;;;;;;;;;;4966734;28;20514;-63
2022/01/07 12:54:53;;;;;;;11.68;6.45;;;;;;;;;;4965662;28;20113;-63
2022/01/07 12:57:26;;;;;;;13.20;7.18;;;;;;;;;;4965951;28;20480;-63
2022/01/07 13:00:08;;;;;;;12.98;6.70;;;;;;;;;;4966893;28;20086;-63
2022/01/07 13:02:36;;;;;;;13.52;6.88;;;;;;;;;;4966366;28;20075;-64
2022/01/07 13:05:14;;;;;;;13.10;7.05;;;;;;;;;;4962917;28;20074;-63
2022/01/07 13:07:41;;;;;;;14.27;7.45;;;;;;;;;;4962693;28;20079;-63
2022/01/07 13:10:09;;;;;;;10.93;6.30;;;;;;;;;;4966905;28;20174;-63
2022/01/07 13:12:35;;;;;;;14.13;7.00;;;;;;;;;;4966809;28;20047;-63
2022/01/07 13:15:04;;;;;;;10.43;6.40;;;;;;;;;;4962461;28;20542;-63
2022/01/07 13:17:30;;;;;;;13.80;7.68;;;;;;;;;;4965192;28;20161;-63
2022/01/07 13:19:57;;;;;;;13.07;7.43;;;;;;;;;;4966487;28;20764;-63
2022/01/07 13:22:26;;;;;;;11.75;6.13;;;;;;;;;;4964684;28;20433;-63
2022/01/07 13:24:53;;;;;;;11.50;6.53;;;;;;;;;;4964276;28;20042;-63
2022/01/07 13:27:20;;;;;;;9.48;5.45;;;;;;;;;;4962767;28;20142;-63
2022/01/07 13:29:48;;;;;;;12.60;6.60;;;;;;;;;;4966531;28;20145;-63
2022/01/07 13:32:21;;;;;;;11.60;6.03;;;;;;;;;;4968165;28;20721;-63
2022/01/07 13:34:48;;;;;;;13.18;6.32;;;;;;;;;;4965195;28;20066;-63
2022/01/07 13:37:16;;;;;;;12.00;6.45;;;;;;;;;;4962299;28;20143;-63
2022/01/07 13:39:44;;;;;;;12.60;6.45;;;;;;;;;;4964355;28;20121;-63
2022/01/07 13:42:12;;;;;;;13.52;7.50;;;;;;;;;;4963837;28;20050;-64
2022/01/07 13:44:50;;;;;;;12.50;6.05;;;;;;;;;;4961183;28;20074;-63
2022/01/07 13:47:22;;;;;;;12.38;6.30;;;;;;;;;;4960510;28;20113;-63
2022/01/07 13:49:48;;;;;;;11.63;6.13;;;;;;;;;;4962692;28;20098;-63
2022/01/07 13:52:27;;;;;;;10.85;5.55;;;;;;;;;;4965291;28;20106;-63
2022/01/07 13:54:53;;;;;;;11.75;5.47;;;;;;;;;;4961098;28;20130;-63
2022/01/07 13:57:20;;;;;;;10.35;6.32;;;;;;;;;;4964016;28;20141;-63
2022/01/07 13:59:49;;;;;;;10.38;5.55;;;;;;;;;;4960457;28;20082;-63
2022/01/07 14:02:17;;;;;;;11.77;5.80;;;;;;;;;;4962906;28;20131;-67
2022/01/07 14:04:48;;;;;;;8.43;5.10;;;;;;;;;;4962016;28;20142;-63
2022/01/07 14:07:32;;;;;;;12.40;5.88;;;;;;;;;;4960778;28;20055;-63
2022/01/07 14:10:11;;;;;;;13.75;7.40;;;;;;;;;;4961799;28;20058;-63
2022/01/07 14:12:39;;;;;;;12.38;5.65;;;;;;;;;;4963441;28;20133;-63
2022/01/07 14:15:09;;;;;;;11.13;5.63;;;;;;;;;;4961706;28;20129;-63
2022/01/07 14:17:35;;;;;;;12.13;6.80;;;;;;;;;;4962137;28;20043;-63
2022/01/07 14:20:05;;;;;;;12.88;6.97;;;;;;;;;;4946136;28;20059;-63
2022/01/07 14:22:34;;;;;;;13.63;6.40;;;;;;;;;;4960139;28;20129;-64
2022/01/07 14:25:02;;;;;;;12.75;6.65;;;;;;;;;;4964122;28;20035;-63
2022/01/07 14:27:30;;;;;;;10.02;6.45;;;;;;;;;;4962561;28;20117;-63
2022/01/07 14:29:57;;;;;;;9.43;5.50;;;;;;;;;;4961485;28;20083;-63
2022/01/07 14:32:25;;;;;;;13.98;7.15;;;;;;;;;;4960636;28;20078;-63
2022/01/07 14:34:55;;;;;;;11.23;5.93;;;;;;;;;;4960979;28;20039;-63
2022/01/07 14:37:24;;;;;;;10.40;6.28;;;;;;;;;;4963779;28;20051;-64
2022/01/07 14:39:51;;;;;;;11.05;6.05;;;;;;;;;;4964344;28;20055;-63
2022/01/07 14:42:17;;;;;;;18.60;8.95;;;;;;;;;;4961324;28;20130;-63
2022/01/07 14:44:44;;;;;;;12.38;6.88;;;;;;;;;;4962677;28;20130;-63
2022/01/07 14:47:12;;;;;;;19.67;9.05;;;;;;;;;;4961920;28;20424;-63